createdAt,value
2023-04-01T00:00:01.473Z,13.84
2023-04-01T00:15:02.170Z,13.75
2023-04-01T00:30:01.847Z,13.68
2023-04-01T00:45:01.480Z,13.72
2023-04-01T01:00:02.232Z,13.61
2023-04-01T01:15:02.017Z,13.64
2023-04-01T01:30:01.682Z,13.52
2023-04-01T01:45:02.362Z,13.6
2023-04-01T02:00:02.086Z,13.59
2023-04-01T02:15:01.797Z,13.52
2023-04-01T02:30:01.447Z,13.7
2023-04-01T02:45:02.116Z,13.5
2023-04-01T03:00:01.714Z,13.52
2023-04-01T03:15:10.941Z,13.71
2023-04-01T03:30:01.388Z,13.78
2023-04-01T03:45:02.069Z,13.74
2023-04-01T04:00:01.682Z,13.69
2023-04-01T04:15:01.326Z,13.47
2023-04-01T04:30:02.306Z,13.31
2023-04-01T04:45:01.975Z,13.47
2023-04-01T05:00:01.679Z,13.21
2023-04-01T05:15:02.331Z,13.23
2023-04-01T05:30:02.037Z,13.21
2023-04-01T05:45:01.686Z,13.31
2023-04-01T06:00:02.316Z,13.63
2023-04-01T06:15:01.990Z,13.82
2023-04-01T06:30:01.620Z,13.7
2023-04-01T06:45:02.270Z,13.53
2023-04-01T07:00:02.015Z,13.77
2023-04-01T07:15:01.665Z,14.09
2023-04-01T07:30:02.319Z,14.58
2023-04-01T07:45:01.972Z,14.89
2023-04-01T08:00:01.606Z,15.31
2023-04-01T08:15:02.254Z,16.18
2023-04-01T08:30:01.969Z,16.52
2023-04-01T08:45:01.712Z,16.81
2023-04-01T09:00:01.352Z,17.24
2023-04-01T09:15:02.028Z,17.86
2023-04-01T09:30:01.709Z,18.4
2023-04-01T09:45:01.315Z,20.61
2023-04-01T10:00:01.922Z,22.32
2023-04-01T10:15:01.568Z,21.11
2023-04-01T10:30:02.244Z,21.5
2023-04-01T10:45:01.888Z,22.14
2023-04-01T11:00:01.505Z,20.92
2023-04-01T11:15:01.316Z,21.23
2023-04-01T11:30:01.983Z,21.42
2023-04-01T11:45:01.567Z,23.14
2023-04-01T12:00:02.119Z,25.1
2023-04-01T12:15:01.794Z,20.79
2023-04-01T12:30:01.809Z,19.26
2023-04-01T12:45:02.468Z,17.02
2023-04-01T13:00:02.049Z,17.11
2023-04-01T13:15:02.765Z,17.64
2023-04-01T13:30:02.018Z,19.2
2023-04-01T13:45:01.656Z,19.68
2023-04-01T14:00:02.325Z,21.7
2023-04-01T14:15:02.006Z,21.33
2023-04-01T14:30:01.660Z,19.92
2023-04-01T14:45:02.321Z,19.16
2023-04-01T15:00:02.008Z,19.03
2023-04-01T15:15:01.674Z,18.75
2023-04-01T15:30:02.551Z,17.36
2023-04-01T15:45:02.333Z,16.62
2023-04-01T16:00:01.996Z,15.67
2023-04-01T16:15:01.598Z,15.2
2023-04-01T16:30:02.234Z,14.71
2023-04-01T16:45:01.894Z,14.25
2023-04-01T17:00:01.547Z,14.08
2023-04-01T17:15:02.207Z,13.6
2023-04-01T17:30:01.986Z,13.17
2023-04-01T17:45:01.747Z,12.81
2023-04-01T18:00:01.397Z,12.9
2023-04-01T18:15:02.037Z,12.59
2023-04-01T18:30:01.714Z,12.29
2023-04-01T18:45:01.333Z,12.36
2023-04-01T19:00:01.966Z,12.22
2023-04-01T19:15:01.601Z,12.05
2023-04-01T19:30:01.261Z,11.85
2023-04-01T19:45:01.946Z,11.75
2023-04-01T20:00:01.582Z,11.71
2023-04-01T20:15:01.287Z,11.38
2023-04-01T20:30:02.345Z,11.24
2023-04-01T20:45:02.036Z,11.21
2023-04-01T21:00:01.714Z,11.07
2023-04-01T21:15:02.415Z,10.84
2023-04-01T21:30:02.090Z,10.86
2023-04-01T21:45:01.733Z,10.88
2023-04-01T22:00:02.361Z,11.01
2023-04-01T22:15:01.980Z,10.97
2023-04-01T22:30:01.611Z,10.92
2023-04-01T22:45:02.247Z,10.43
2023-04-01T23:00:01.890Z,10.33
2023-04-01T23:15:01.544Z,10.21
2023-04-01T23:30:02.220Z,10.36
2023-04-01T23:45:01.867Z,10.04
